sensor_id;sensor_type;location;lat;lon;timestamp;P1;durP1;ratioP1;P2;durP2;ratioP2
4808;SDS011;2418;49.930;8.606;2022-08-11T00:00:43;3.50;;;3.30;;
4808;SDS011;2418;49.930;8.606;2022-08-11T00:03:11;3.50;;;3.30;;
4808;SDS011;2418;49.930;8.606;2022-08-11T00:05:45;3.55;;;3.45;;
4808;SDS011;2418;49.930;8.606;2022-08-11T00:08:19;3.33;;;3.15;;
4808;SDS011;2418;49.930;8.606;2022-08-11T00:10:49;3.30;;;3.20;;
4808;SDS011;2418;49.930;8.606;2022-08-11T00:13:16;3.47;;;3.38;;
4808;SDS011;2418;49.930;8.606;2022-08-11T00:15:43;3.40;;;3.30;;
4808;SDS011;2418;49.930;8.606;2022-08-11T00:18:09;3.87;;;3.67;;
4808;SDS011;2418;49.930;8.606;2022-08-11T00:20:37;11.25;;;3.78;;
4808;SDS011;2418;49.930;8.606;2022-08-11T00:23:08;5.00;;;3.90;;
4808;SDS011;2418;49.930;8.606;2022-08-11T00:25:41;4.00;;;3.70;;
4808;SDS011;2418;49.930;8.606;2022-08-11T00:30:53;3.83;;;3.63;;
4808;SDS011;2418;49.930;8.606;2022-08-11T00:33:21;8.40;;;3.67;;
4808;SDS011;2418;49.930;8.606;2022-08-11T00:35:48;7.15;;;3.60;;
4808;SDS011;2418;49.930;8.606;2022-08-11T00:38:15;4.03;;;3.63;;
4808;SDS011;2418;49.930;8.606;2022-08-11T00:40:50;3.88;;;3.65;;
4808;SDS011;2418;49.930;8.606;2022-08-11T00:49:20;3.70;;;3.40;;
4808;SDS011;2418;49.930;8.606;2022-08-11T00:54:05;3.95;;;3.70;;
4808;SDS011;2418;49.930;8.606;2022-08-11T01:02:18;3.95;;;3.75;;
4808;SDS011;2418;49.930;8.606;2022-08-11T01:07:24;3.80;;;3.55;;
4808;SDS011;2418;49.930;8.606;2022-08-11T01:10:01;5.63;;;4.10;;
4808;SDS011;2418;49.930;8.606;2022-08-11T01:15:46;4.20;;;3.90;;
4808;SDS011;2418;49.930;8.606;2022-08-11T01:29:02;6.97;;;3.75;;
4808;SDS011;2418;49.930;8.606;2022-08-11T01:31:33;4.05;;;3.85;;
4808;SDS011;2418;49.930;8.606;2022-08-11T01:36:47;4.90;;;3.88;;
4808;SDS011;2418;49.930;8.606;2022-08-11T01:50:16;3.95;;;3.83;;
4808;SDS011;2418;49.930;8.606;2022-08-11T02:00:54;5.38;;;4.93;;
4808;SDS011;2418;49.930;8.606;2022-08-11T02:03:26;6.23;;;5.53;;
4808;SDS011;2418;49.930;8.606;2022-08-11T02:14:06;5.13;;;4.72;;
4808;SDS011;2418;49.930;8.606;2022-08-11T02:16:39;5.10;;;4.90;;
4808;SDS011;2418;49.930;8.606;2022-08-11T02:19:19;5.80;;;4.95;;
4808;SDS011;2418;49.930;8.606;2022-08-11T02:22:05;4.53;;;4.30;;
4808;SDS011;2418;49.930;8.606;2022-08-11T02:25:03;8.67;;;4.43;;
4808;SDS011;2418;49.930;8.606;2022-08-11T02:27:35;4.57;;;4.18;;
4808;SDS011;2418;49.930;8.606;2022-08-11T02:30:05;4.53;;;4.13;;
4808;SDS011;2418;49.930;8.606;2022-08-11T02:38:23;9.60;;;3.85;;
4808;SDS011;2418;49.930;8.606;2022-08-11T02:41:00;4.65;;;3.85;;
4808;SDS011;2418;49.930;8.606;2022-08-11T02:43:49;4.10;;;3.80;;
4808;SDS011;2418;49.930;8.606;2022-08-11T02:46:21;4.30;;;4.10;;
4808;SDS011;2418;49.930;8.606;2022-08-11T02:52:04;5.65;;;4.03;;
4808;SDS011;2418;49.930;8.606;2022-08-11T02:54:38;4.55;;;4.25;;
4808;SDS011;2418;49.930;8.606;2022-08-11T02:57:27;6.68;;;3.55;;
4808;SDS011;2418;49.930;8.606;2022-08-11T02:59:56;6.07;;;4.40;;
4808;SDS011;2418;49.930;8.606;2022-08-11T03:08:00;4.60;;;4.20;;
4808;SDS011;2418;49.930;8.606;2022-08-11T03:14:07;4.45;;;4.35;;
4808;SDS011;2418;49.930;8.606;2022-08-11T03:17:13;6.30;;;4.30;;
4808;SDS011;2418;49.930;8.606;2022-08-11T03:22:48;4.10;;;3.90;;
4808;SDS011;2418;49.930;8.606;2022-08-11T03:25:29;5.47;;;4.97;;
4808;SDS011;2418;49.930;8.606;2022-08-11T03:28:07;4.80;;;4.40;;
4808;SDS011;2418;49.930;8.606;2022-08-11T03:30:41;6.00;;;4.60;;
4808;SDS011;2418;49.930;8.606;2022-08-11T03:33:14;14.63;;;4.57;;
4808;SDS011;2418;49.930;8.606;2022-08-11T03:36:08;4.45;;;4.20;;
4808;SDS011;2418;49.930;8.606;2022-08-11T03:52:04;5.50;;;4.43;;
4808;SDS011;2418;49.930;8.606;2022-08-11T03:54:37;4.70;;;4.30;;
4808;SDS011;2418;49.930;8.606;2022-08-11T03:57:27;4.22;;;4.00;;
4808;SDS011;2418;49.930;8.606;2022-08-11T04:10:29;5.50;;;3.90;;
4808;SDS011;2418;49.930;8.606;2022-08-11T04:13:05;8.82;;;4.43;;
4808;SDS011;2418;49.930;8.606;2022-08-11T04:16:00;4.55;;;4.25;;
4808;SDS011;2418;49.930;8.606;2022-08-11T04:26:36;9.57;;;4.78;;
4808;SDS011;2418;49.930;8.606;2022-08-11T04:31:36;4.75;;;4.40;;
4808;SDS011;2418;49.930;8.606;2022-08-11T04:34:04;5.83;;;4.43;;
4808;SDS011;2418;49.930;8.606;2022-08-11T04:36:40;4.50;;;4.15;;
4808;SDS011;2418;49.930;8.606;2022-08-11T04:45:07;4.53;;;4.07;;
4808;SDS011;2418;49.930;8.606;2022-08-11T04:50:43;7.22;;;4.40;;
4808;SDS011;2418;49.930;8.606;2022-08-11T04:56:24;6.57;;;4.20;;
4808;SDS011;2418;49.930;8.606;2022-08-11T05:02:07;4.13;;;3.83;;
4808;SDS011;2418;49.930;8.606;2022-08-11T05:13:10;4.47;;;3.92;;
4808;SDS011;2418;49.930;8.606;2022-08-11T05:16:00;4.00;;;3.80;;
4808;SDS011;2418;49.930;8.606;2022-08-11T05:18:51;4.75;;;4.28;;
4808;SDS011;2418;49.930;8.606;2022-08-11T05:21:36;6.15;;;3.90;;
4808;SDS011;2418;49.930;8.606;2022-08-11T05:24:24;3.20;;;3.10;;
4808;SDS011;2418;49.930;8.606;2022-08-11T05:27:11;7.40;;;3.80;;
4808;SDS011;2418;49.930;8.606;2022-08-11T05:32:45;6.93;;;4.35;;
4808;SDS011;2418;49.930;8.606;2022-08-11T05:35:40;3.95;;;3.80;;
4808;SDS011;2418;49.930;8.606;2022-08-11T05:38:11;4.00;;;3.70;;
4808;SDS011;2418;49.930;8.606;2022-08-11T05:40:56;6.60;;;4.28;;
4808;SDS011;2418;49.930;8.606;2022-08-11T05:43:43;3.75;;;3.55;;
4808;SDS011;2418;49.930;8.606;2022-08-11T05:46:28;3.85;;;3.45;;
4808;SDS011;2418;49.930;8.606;2022-08-11T05:49:13;3.60;;;3.50;;
4808;SDS011;2418;49.930;8.606;2022-08-11T05:51:58;5.10;;;3.53;;
4808;SDS011;2418;49.930;8.606;2022-08-11T05:54:43;5.90;;;4.10;;
4808;SDS011;2418;49.930;8.606;2022-08-11T05:57:30;5.87;;;4.07;;
4808;SDS011;2418;49.930;8.606;2022-08-11T05:59:59;8.90;;;4.25;;
4808;SDS011;2418;49.930;8.606;2022-08-11T06:02:27;6.50;;;3.85;;
4808;SDS011;2418;49.930;8.606;2022-08-11T06:04:57;4.22;;;3.70;;
4808;SDS011;2418;49.930;8.606;2022-08-11T06:07:28;4.70;;;4.00;;
4808;SDS011;2418;49.930;8.606;2022-08-11T06:09:54;7.70;;;4.50;;
4808;SDS011;2418;49.930;8.606;2022-08-11T06:12:22;3.40;;;3.30;;
4808;SDS011;2418;49.930;8.606;2022-08-11T06:14:51;4.20;;;3.90;;
4808;SDS011;2418;49.930;8.606;2022-08-11T06:17:26;5.05;;;3.90;;
4808;SDS011;2418;49.930;8.606;2022-08-11T06:19:57;6.50;;;3.20;;
4808;SDS011;2418;49.930;8.606;2022-08-11T06:22:23;9.23;;;4.60;;
4808;SDS011;2418;49.930;8.606;2022-08-11T06:24:51;6.20;;;3.65;;
4808;SDS011;2418;49.930;8.606;2022-08-11T06:27:20;8.50;;;3.90;;
4808;SDS011;2418;49.930;8.606;2022-08-11T06:29:50;4.22;;;3.88;;
4808;SDS011;2418;49.930;8.606;2022-08-11T06:32:16;7.60;;;3.58;;
4808;SDS011;2418;49.930;8.606;2022-08-11T06:47:50;4.10;;;3.70;;
4808;SDS011;2418;49.930;8.606;2022-08-11T06:50:20;3.50;;;3.40;;
4808;SDS011;2418;49.930;8.606;2022-08-11T06:53:06;3.65;;;3.45;;
4808;SDS011;2418;49.930;8.606;2022-08-11T06:55:34;3.90;;;3.80;;
4808;SDS011;2418;49.930;8.606;2022-08-11T06:58:20;9.20;;;3.70;;
4808;SDS011;2418;49.930;8.606;2022-08-11T07:01:10;3.95;;;3.50;;
4808;SDS011;2418;49.930;8.606;2022-08-11T07:03:38;3.70;;;3.50;;
4808;SDS011;2418;49.930;8.606;2022-08-11T07:06:22;4.90;;;3.10;;
4808;SDS011;2418;49.930;8.606;2022-08-11T07:09:07;4.55;;;3.40;;
4808;SDS011;2418;49.930;8.606;2022-08-11T07:14:49;8.50;;;2.90;;
4808;SDS011;2418;49.930;8.606;2022-08-11T07:17:37;7.05;;;3.58;;
4808;SDS011;2418;49.930;8.606;2022-08-11T07:20:06;2.83;;;2.60;;
4808;SDS011;2418;49.930;8.606;2022-08-11T07:22:57;3.70;;;3.40;;
4808;SDS011;2418;49.930;8.606;2022-08-11T07:25:43;3.13;;;3.03;;
4808;SDS011;2418;49.930;8.606;2022-08-11T07:28:29;6.20;;;3.67;;
4808;SDS011;2418;49.930;8.606;2022-08-11T07:31:24;6.70;;;3.20;;
4808;SDS011;2418;49.930;8.606;2022-08-11T07:33:52;3.30;;;3.10;;
4808;SDS011;2418;49.930;8.606;2022-08-11T07:36:21;3.50;;;3.40;;
4808;SDS011;2418;49.930;8.606;2022-08-11T07:38:50;3.60;;;3.30;;
4808;SDS011;2418;49.930;8.606;2022-08-11T07:41:18;3.95;;;3.75;;
4808;SDS011;2418;49.930;8.606;2022-08-11T07:43:45;3.90;;;3.60;;
4808;SDS011;2418;49.930;8.606;2022-08-11T07:46:13;3.97;;;3.30;;
4808;SDS011;2418;49.930;8.606;2022-08-11T07:48:57;6.45;;;3.47;;
4808;SDS011;2418;49.930;8.606;2022-08-11T07:51:42;6.47;;;3.60;;
4808;SDS011;2418;49.930;8.606;2022-08-11T07:54:27;3.10;;;2.90;;
4808;SDS011;2418;49.930;8.606;2022-08-11T07:56:54;3.70;;;3.50;;
4808;SDS011;2418;49.930;8.606;2022-08-11T07:59:21;3.80;;;3.50;;
4808;SDS011;2418;49.930;8.606;2022-08-11T08:02:06;5.93;;;3.45;;
4808;SDS011;2418;49.930;8.606;2022-08-11T08:04:52;4.38;;;3.30;;
4808;SDS011;2418;49.930;8.606;2022-08-11T08:07:37;5.95;;;3.35;;
4808;SDS011;2418;49.930;8.606;2022-08-11T08:10:22;4.60;;;2.90;;
4808;SDS011;2418;49.930;8.606;2022-08-11T08:13:06;3.30;;;3.00;;
4808;SDS011;2418;49.930;8.606;2022-08-11T08:15:52;3.72;;;2.90;;
4808;SDS011;2418;49.930;8.606;2022-08-11T08:18:37;3.17;;;2.88;;
4808;SDS011;2418;49.930;8.606;2022-08-11T08:21:04;2.90;;;2.70;;
4808;SDS011;2418;49.930;8.606;2022-08-11T08:23:40;3.38;;;3.08;;
4808;SDS011;2418;49.930;8.606;2022-08-11T08:26:07;7.67;;;3.07;;
4808;SDS011;2418;49.930;8.606;2022-08-11T08:28:54;2.55;;;2.55;;
4808;SDS011;2418;49.930;8.606;2022-08-11T08:31:40;5.18;;;3.10;;
4808;SDS011;2418;49.930;8.606;2022-08-11T08:34:06;4.43;;;3.20;;
4808;SDS011;2418;49.930;8.606;2022-08-11T08:36:33;4.40;;;2.90;;
4808;SDS011;2418;49.930;8.606;2022-08-11T08:39:00;4.55;;;3.00;;
4808;SDS011;2418;49.930;8.606;2022-08-11T08:41:27;5.60;;;3.58;;
4808;SDS011;2418;49.930;8.606;2022-08-11T08:43:57;3.40;;;3.20;;
4808;SDS011;2418;49.930;8.606;2022-08-11T08:46:29;5.10;;;3.00;;
4808;SDS011;2418;49.930;8.606;2022-08-11T08:48:59;7.45;;;2.80;;
4808;SDS011;2418;49.930;8.606;2022-08-11T08:51:26;3.28;;;3.00;;
4808;SDS011;2418;49.930;8.606;2022-08-11T08:54:00;3.90;;;3.00;;
4808;SDS011;2418;49.930;8.606;2022-08-11T08:56:28;8.18;;;3.40;;
4808;SDS011;2418;49.930;8.606;2022-08-11T08:58:55;5.80;;;2.90;;
4808;SDS011;2418;49.930;8.606;2022-08-11T09:01:21;3.50;;;3.28;;
4808;SDS011;2418;49.930;8.606;2022-08-11T09:03:49;6.20;;;3.20;;
4808;SDS011;2418;49.930;8.606;2022-08-11T09:06:15;6.00;;;3.07;;
4808;SDS011;2418;49.930;8.606;2022-08-11T09:08:42;3.35;;;2.50;;
4808;SDS011;2418;49.930;8.606;2022-08-11T09:11:08;3.50;;;2.83;;
4808;SDS011;2418;49.930;8.606;2022-08-11T09:13:53;5.63;;;3.00;;
4808;SDS011;2418;49.930;8.606;2022-08-11T09:16:20;5.00;;;2.78;;
4808;SDS011;2418;49.930;8.606;2022-08-11T09:18:48;2.67;;;2.45;;
4808;SDS011;2418;49.930;8.606;2022-08-11T09:21:14;5.30;;;2.53;;
4808;SDS011;2418;49.930;8.606;2022-08-11T09:23:41;11.20;;;3.47;;
4808;SDS011;2418;49.930;8.606;2022-08-11T09:26:27;2.70;;;2.50;;
4808;SDS011;2418;49.930;8.606;2022-08-11T09:29:12;2.35;;;2.25;;
4808;SDS011;2418;49.930;8.606;2022-08-11T09:31:39;4.70;;;2.65;;
4808;SDS011;2418;49.930;8.606;2022-08-11T09:34:05;4.32;;;2.30;;
4808;SDS011;2418;49.930;8.606;2022-08-11T09:36:32;3.90;;;2.63;;
4808;SDS011;2418;49.930;8.606;2022-08-11T09:39:17;2.70;;;2.58;;
4808;SDS011;2418;49.930;8.606;2022-08-11T09:42:02;2.67;;;2.50;;
4808;SDS011;2418;49.930;8.606;2022-08-11T09:44:29;2.22;;;2.10;;
4808;SDS011;2418;49.930;8.606;2022-08-11T09:47:17;2.88;;;2.80;;
4808;SDS011;2418;49.930;8.606;2022-08-11T09:49:44;2.70;;;2.60;;
4808;SDS011;2418;49.930;8.606;2022-08-11T09:52:10;3.30;;;2.50;;
4808;SDS011;2418;49.930;8.606;2022-08-11T09:54:38;5.03;;;2.63;;
4808;SDS011;2418;49.930;8.606;2022-08-11T09:57:05;2.53;;;2.00;;
4808;SDS011;2418;49.930;8.606;2022-08-11T09:59:50;6.18;;;2.20;;
4808;SDS011;2418;49.930;8.606;2022-08-11T10:02:17;3.45;;;2.00;;
4808;SDS011;2418;49.930;8.606;2022-08-11T10:04:50;2.80;;;2.60;;
4808;SDS011;2418;49.930;8.606;2022-08-11T10:07:18;3.95;;;2.35;;
4808;SDS011;2418;49.930;8.606;2022-08-11T10:12:19;2.13;;;2.03;;
4808;SDS011;2418;49.930;8.606;2022-08-11T10:14:49;2.97;;;2.15;;
4808;SDS011;2418;49.930;8.606;2022-08-11T10:17:38;2.95;;;2.30;;
4808;SDS011;2418;49.930;8.606;2022-08-11T10:20:26;2.65;;;2.45;;
4808;SDS011;2418;49.930;8.606;2022-08-11T10:22:53;3.20;;;2.20;;
4808;SDS011;2418;49.930;8.606;2022-08-11T10:25:38;2.22;;;2.13;;
4808;SDS011;2418;49.930;8.606;2022-08-11T10:28:23;2.20;;;2.10;;
4808;SDS011;2418;49.930;8.606;2022-08-11T10:30:49;2.58;;;2.50;;
4808;SDS011;2418;49.930;8.606;2022-08-11T10:33:34;2.80;;;2.70;;
4808;SDS011;2418;49.930;8.606;2022-08-11T10:36:20;2.75;;;2.60;;
4808;SDS011;2418;49.930;8.606;2022-08-11T10:38:46;3.30;;;2.35;;
4808;SDS011;2418;49.930;8.606;2022-08-11T10:41:15;2.20;;;2.20;;
4808;SDS011;2418;49.930;8.606;2022-08-11T10:44:00;3.20;;;2.40;;
4808;SDS011;2418;49.930;8.606;2022-08-11T10:46:27;2.20;;;2.10;;
4808;SDS011;2418;49.930;8.606;2022-08-11T10:49:11;5.00;;;2.20;;
4808;SDS011;2418;49.930;8.606;2022-08-11T10:51:37;10.40;;;3.00;;
4808;SDS011;2418;49.930;8.606;2022-08-11T10:54:23;7.32;;;2.35;;
4808;SDS011;2418;49.930;8.606;2022-08-11T10:57:08;2.42;;;2.33;;
4808;SDS011;2418;49.930;8.606;2022-08-11T10:59:53;2.45;;;2.45;;
4808;SDS011;2418;49.930;8.606;2022-08-11T11:02:19;4.20;;;2.08;;
4808;SDS011;2418;49.930;8.606;2022-08-11T11:05:02;5.78;;;2.75;;
4808;SDS011;2418;49.930;8.606;2022-08-11T11:07:56;2.70;;;2.50;;
4808;SDS011;2418;49.930;8.606;2022-08-11T11:10:24;3.53;;;2.50;;
4808;SDS011;2418;49.930;8.606;2022-08-11T11:12:52;3.70;;;2.30;;
4808;SDS011;2418;49.930;8.606;2022-08-11T11:15:37;2.80;;;2.60;;
4808;SDS011;2418;49.930;8.606;2022-08-11T11:18:26;3.20;;;2.90;;
4808;SDS011;2418;49.930;8.606;2022-08-11T11:21:02;2.40;;;2.20;;
4808;SDS011;2418;49.930;8.606;2022-08-11T11:26:25;3.80;;;2.80;;
4808;SDS011;2418;49.930;8.606;2022-08-11T11:31:30;5.80;;;2.88;;
4808;SDS011;2418;49.930;8.606;2022-08-11T11:34:10;2.90;;;2.70;;
4808;SDS011;2418;49.930;8.606;2022-08-11T11:36:47;3.60;;;2.40;;
4808;SDS011;2418;49.930;8.606;2022-08-11T11:39:21;2.45;;;2.45;;
4808;SDS011;2418;49.930;8.606;2022-08-11T11:41:48;2.80;;;2.60;;
4808;SDS011;2418;49.930;8.606;2022-08-11T11:44:14;6.15;;;2.95;;
4808;SDS011;2418;49.930;8.606;2022-08-11T11:46:41;8.20;;;2.70;;
4808;SDS011;2418;49.930;8.606;2022-08-11T11:49:09;5.50;;;2.57;;
4808;SDS011;2418;49.930;8.606;2022-08-11T11:51:35;2.70;;;2.60;;
4808;SDS011;2418;49.930;8.606;2022-08-11T11:54:02;5.30;;;2.50;;
4808;SDS011;2418;49.930;8.606;2022-08-11T11:56:29;6.30;;;2.40;;
4808;SDS011;2418;49.930;8.606;2022-08-11T11:58:55;2.75;;;2.60;;
4808;SDS011;2418;49.930;8.606;2022-08-11T12:01:40;4.90;;;2.78;;
4808;SDS011;2418;49.930;8.606;2022-08-11T12:04:07;7.13;;;2.53;;
4808;SDS011;2418;49.930;8.606;2022-08-11T12:06:33;3.00;;;2.80;;
4808;SDS011;2418;49.930;8.606;2022-08-11T12:08:59;3.20;;;2.90;;
4808;SDS011;2418;49.930;8.606;2022-08-11T12:11:26;6.00;;;3.10;;
4808;SDS011;2418;49.930;8.606;2022-08-11T12:14:11;3.08;;;2.88;;
4808;SDS011;2418;49.930;8.606;2022-08-11T12:16:38;3.75;;;2.58;;
4808;SDS011;2418;49.930;8.606;2022-08-11T12:19:08;2.90;;;2.20;;
4808;SDS011;2418;49.930;8.606;2022-08-11T12:21:35;2.80;;;2.60;;
4808;SDS011;2418;49.930;8.606;2022-08-11T12:24:02;3.15;;;2.95;;
4808;SDS011;2418;49.930;8.606;2022-08-11T12:26:47;3.90;;;2.95;;
4808;SDS011;2418;49.930;8.606;2022-08-11T12:29:17;9.63;;;2.58;;
4808;SDS011;2418;49.930;8.606;2022-08-11T12:31:44;3.38;;;2.60;;
4808;SDS011;2418;49.930;8.606;2022-08-11T12:34:11;3.10;;;2.90;;
4808;SDS011;2418;49.930;8.606;2022-08-11T12:36:38;3.10;;;2.67;;
4808;SDS011;2418;49.930;8.606;2022-08-11T12:39:06;3.00;;;2.80;;
4808;SDS011;2418;49.930;8.606;2022-08-11T12:41:33;3.97;;;2.43;;
4808;SDS011;2418;49.930;8.606;2022-08-11T12:44:19;2.65;;;2.45;;
4808;SDS011;2418;49.930;8.606;2022-08-11T12:47:06;2.90;;;2.80;;
4808;SDS011;2418;49.930;8.606;2022-08-11T12:49:34;5.40;;;2.20;;
4808;SDS011;2418;49.930;8.606;2022-08-11T12:52:21;3.88;;;2.70;;
4808;SDS011;2418;49.930;8.606;2022-08-11T12:54:48;16.30;;;2.85;;
4808;SDS011;2418;49.930;8.606;2022-08-11T12:57:16;2.30;;;2.20;;
4808;SDS011;2418;49.930;8.606;2022-08-11T13:00:03;2.47;;;2.00;;
4808;SDS011;2418;49.930;8.606;2022-08-11T13:02:48;2.70;;;2.43;;
4808;SDS011;2418;49.930;8.606;2022-08-11T13:05:33;2.15;;;2.05;;
4808;SDS011;2418;49.930;8.606;2022-08-11T13:08:00;2.58;;;2.38;;
4808;SDS011;2418;49.930;8.606;2022-08-11T13:10:27;5.30;;;2.35;;
4808;SDS011;2418;49.930;8.606;2022-08-11T13:13:14;4.57;;;2.60;;
4808;SDS011;2418;49.930;8.606;2022-08-11T13:15:41;2.90;;;2.70;;
4808;SDS011;2418;49.930;8.606;2022-08-11T13:18:08;9.88;;;3.20;;
4808;SDS011;2418;49.930;8.606;2022-08-11T13:20:35;3.03;;;2.83;;
4808;SDS011;2418;49.930;8.606;2022-08-11T13:23:01;4.35;;;2.40;;
4808;SDS011;2418;49.930;8.606;2022-08-11T13:25:29;3.22;;;2.92;;
4808;SDS011;2418;49.930;8.606;2022-08-11T13:27:56;2.67;;;2.42;;
4808;SDS011;2418;49.930;8.606;2022-08-11T13:30:24;2.10;;;2.00;;
4808;SDS011;2418;49.930;8.606;2022-08-11T13:33:09;2.20;;;2.17;;
4808;SDS011;2418;49.930;8.606;2022-08-11T13:35:35;4.28;;;2.08;;
4808;SDS011;2418;49.930;8.606;2022-08-11T13:38:02;2.30;;;2.10;;
4808;SDS011;2418;49.930;8.606;2022-08-11T13:40:29;2.22;;;2.20;;
4808;SDS011;2418;49.930;8.606;2022-08-11T13:42:55;6.00;;;2.60;;
4808;SDS011;2418;49.930;8.606;2022-08-11T13:45:23;6.30;;;2.80;;
4808;SDS011;2418;49.930;8.606;2022-08-11T13:47:54;2.70;;;2.10;;
4808;SDS011;2418;49.930;8.606;2022-08-11T13:50:20;2.60;;;2.30;;
4808;SDS011;2418;49.930;8.606;2022-08-11T13:53:06;3.53;;;2.40;;
4808;SDS011;2418;49.930;8.606;2022-08-11T13:55:32;4.60;;;2.40;;
4808;SDS011;2418;49.930;8.606;2022-08-11T13:57:58;8.50;;;4.00;;
4808;SDS011;2418;49.930;8.606;2022-08-11T14:00:24;3.10;;;2.67;;
4808;SDS011;2418;49.930;8.606;2022-08-11T14:02:55;2.30;;;2.20;;
4808;SDS011;2418;49.930;8.606;2022-08-11T14:05:25;3.20;;;2.60;;
4808;SDS011;2418;49.930;8.606;2022-08-11T14:07:54;2.97;;;2.30;;
4808;SDS011;2418;49.930;8.606;2022-08-11T14:10:23;2.50;;;1.93;;
4808;SDS011;2418;49.930;8.606;2022-08-11T14:12:54;3.10;;;2.00;;
4808;SDS011;2418;49.930;8.606;2022-08-11T14:15:41;3.80;;;2.00;;
4808;SDS011;2418;49.930;8.606;2022-08-11T14:18:19;5.60;;;2.08;;
4808;SDS011;2418;49.930;8.606;2022-08-11T14:20:48;2.40;;;2.30;;
4808;SDS011;2418;49.930;8.606;2022-08-11T14:23:43;2.60;;;1.85;;
4808;SDS011;2418;49.930;8.606;2022-08-11T14:26:11;2.67;;;2.33;;
4808;SDS011;2418;49.930;8.606;2022-08-11T14:29:04;1.70;;;1.70;;
4808;SDS011;2418;49.930;8.606;2022-08-11T14:31:32;2.90;;;2.33;;
4808;SDS011;2418;49.930;8.606;2022-08-11T14:34:03;5.10;;;2.00;;
4808;SDS011;2418;49.930;8.606;2022-08-11T14:36:30;4.20;;;1.80;;
4808;SDS011;2418;49.930;8.606;2022-08-11T14:38:56;2.20;;;2.00;;
4808;SDS011;2418;49.930;8.606;2022-08-11T14:41:22;6.32;;;2.95;;
4808;SDS011;2418;49.930;8.606;2022-08-11T14:44:08;3.85;;;3.65;;
4808;SDS011;2418;49.930;8.606;2022-08-11T14:46:53;5.68;;;2.47;;
4808;SDS011;2418;49.930;8.606;2022-08-11T14:49:29;1.70;;;1.60;;
4808;SDS011;2418;49.930;8.606;2022-08-11T14:52:00;2.70;;;1.90;;
4808;SDS011;2418;49.930;8.606;2022-08-11T14:54:30;1.70;;;1.70;;
4808;SDS011;2418;49.930;8.606;2022-08-11T14:57:18;4.75;;;4.45;;
4808;SDS011;2418;49.930;8.606;2022-08-11T14:59:45;5.60;;;4.60;;
4808;SDS011;2418;49.930;8.606;2022-08-11T15:02:12;3.37;;;2.73;;
4808;SDS011;2418;49.930;8.606;2022-08-11T15:04:58;5.70;;;1.88;;
4808;SDS011;2418;49.930;8.606;2022-08-11T15:07:25;1.92;;;1.83;;
4808;SDS011;2418;49.930;8.606;2022-08-11T15:09:58;4.10;;;1.90;;
4808;SDS011;2418;49.930;8.606;2022-08-11T15:12:24;4.30;;;2.00;;
4808;SDS011;2418;49.930;8.606;2022-08-11T15:14:50;2.40;;;2.17;;
4808;SDS011;2418;49.930;8.606;2022-08-11T15:17:35;4.68;;;2.17;;
4808;SDS011;2418;49.930;8.606;2022-08-11T15:20:03;2.90;;;1.90;;
4808;SDS011;2418;49.930;8.606;2022-08-11T15:22:49;2.00;;;1.88;;
4808;SDS011;2418;49.930;8.606;2022-08-11T15:25:34;1.60;;;1.50;;
4808;SDS011;2418;49.930;8.606;2022-08-11T15:28:01;2.03;;;1.92;;
4808;SDS011;2418;49.930;8.606;2022-08-11T15:30:48;2.90;;;1.73;;
4808;SDS011;2418;49.930;8.606;2022-08-11T15:33:34;2.05;;;1.95;;
4808;SDS011;2418;49.930;8.606;2022-08-11T15:36:19;2.33;;;2.00;;
4808;SDS011;2418;49.930;8.606;2022-08-11T15:39:11;3.70;;;3.50;;
4808;SDS011;2418;49.930;8.606;2022-08-11T15:41:44;3.70;;;3.50;;
4808;SDS011;2418;49.930;8.606;2022-08-11T15:44:36;3.00;;;2.90;;
4808;SDS011;2418;49.930;8.606;2022-08-11T15:47:28;2.83;;;2.20;;
4808;SDS011;2418;49.930;8.606;2022-08-11T15:49:58;3.40;;;1.70;;
4808;SDS011;2418;49.930;8.606;2022-08-11T15:52:28;2.30;;;1.95;;
4808;SDS011;2418;49.930;8.606;2022-08-11T15:54:55;2.10;;;2.00;;
4808;SDS011;2418;49.930;8.606;2022-08-11T15:57:25;1.80;;;1.70;;
4808;SDS011;2418;49.930;8.606;2022-08-11T16:00:10;2.80;;;2.05;;
4808;SDS011;2418;49.930;8.606;2022-08-11T16:02:55;1.95;;;1.60;;
4808;SDS011;2418;49.930;8.606;2022-08-11T16:05:40;4.10;;;1.70;;
4808;SDS011;2418;49.930;8.606;2022-08-11T16:08:07;1.47;;;1.37;;
4808;SDS011;2418;49.930;8.606;2022-08-11T16:10:33;4.45;;;1.50;;
4808;SDS011;2418;49.930;8.606;2022-08-11T16:13:01;4.75;;;1.50;;
4808;SDS011;2418;49.930;8.606;2022-08-11T16:15:27;1.90;;;1.50;;
4808;SDS011;2418;49.930;8.606;2022-08-11T16:18:12;4.20;;;2.10;;
4808;SDS011;2418;49.930;8.606;2022-08-11T16:20:40;1.90;;;1.80;;
4808;SDS011;2418;49.930;8.606;2022-08-11T16:23:08;3.00;;;1.90;;
4808;SDS011;2418;49.930;8.606;2022-08-11T16:25:34;3.40;;;1.70;;
4808;SDS011;2418;49.930;8.606;2022-08-11T16:28:01;2.65;;;1.88;;
4808;SDS011;2418;49.930;8.606;2022-08-11T16:30:29;1.80;;;1.52;;
4808;SDS011;2418;49.930;8.606;2022-08-11T16:32:55;1.80;;;1.70;;
4808;SDS011;2418;49.930;8.606;2022-08-11T16:35:23;3.30;;;1.80;;
4808;SDS011;2418;49.930;8.606;2022-08-11T16:38:08;6.25;;;1.92;;
4808;SDS011;2418;49.930;8.606;2022-08-11T16:40:53;2.80;;;1.75;;
4808;SDS011;2418;49.930;8.606;2022-08-11T16:43:22;4.00;;;1.77;;
4808;SDS011;2418;49.930;8.606;2022-08-11T16:46:07;3.78;;;2.00;;
4808;SDS011;2418;49.930;8.606;2022-08-11T16:48:52;1.90;;;1.80;;
4808;SDS011;2418;49.930;8.606;2022-08-11T16:51:19;3.30;;;1.77;;
4808;SDS011;2418;49.930;8.606;2022-08-11T16:53:46;1.60;;;1.60;;
4808;SDS011;2418;49.930;8.606;2022-08-11T16:56:14;2.10;;;2.00;;
4808;SDS011;2418;49.930;8.606;2022-08-11T16:58:41;4.15;;;1.70;;
4808;SDS011;2418;49.930;8.606;2022-08-11T17:01:26;1.92;;;1.83;;
4808;SDS011;2418;49.930;8.606;2022-08-11T17:03:59;1.60;;;1.60;;
4808;SDS011;2418;49.930;8.606;2022-08-11T17:06:46;4.50;;;1.90;;
4808;SDS011;2418;49.930;8.606;2022-08-11T17:09:33;1.60;;;1.50;;
4808;SDS011;2418;49.930;8.606;2022-08-11T17:12:19;2.70;;;1.48;;
4808;SDS011;2418;49.930;8.606;2022-08-11T17:15:05;2.00;;;1.90;;
4808;SDS011;2418;49.930;8.606;2022-08-11T17:17:53;3.60;;;2.05;;
4808;SDS011;2418;49.930;8.606;2022-08-11T17:20:20;1.75;;;1.63;;
4808;SDS011;2418;49.930;8.606;2022-08-11T17:22:46;2.20;;;2.10;;
4808;SDS011;2418;49.930;8.606;2022-08-11T17:25:32;5.15;;;1.70;;
4808;SDS011;2418;49.930;8.606;2022-08-11T17:27:59;1.65;;;1.60;;
4808;SDS011;2418;49.930;8.606;2022-08-11T17:30:25;2.13;;;1.52;;
4808;SDS011;2418;49.930;8.606;2022-08-11T17:33:12;1.77;;;1.60;;
4808;SDS011;2418;49.930;8.606;2022-08-11T17:35:57;2.60;;;1.90;;
4808;SDS011;2418;49.930;8.606;2022-08-11T17:38:24;1.87;;;1.77;;
4808;SDS011;2418;49.930;8.606;2022-08-11T17:40:51;3.10;;;1.50;;
4808;SDS011;2418;49.930;8.606;2022-08-11T17:43:36;6.20;;;1.90;;
4808;SDS011;2418;49.930;8.606;2022-08-11T17:46:21;1.70;;;1.60;;
4808;SDS011;2418;49.930;8.606;2022-08-11T17:49:07;1.70;;;1.70;;
4808;SDS011;2418;49.930;8.606;2022-08-11T17:51:35;2.30;;;1.50;;
4808;SDS011;2418;49.930;8.606;2022-08-11T17:54:21;4.60;;;1.60;;
4808;SDS011;2418;49.930;8.606;2022-08-11T17:57:06;1.75;;;1.30;;
4808;SDS011;2418;49.930;8.606;2022-08-11T17:59:52;2.70;;;1.50;;
4808;SDS011;2418;49.930;8.606;2022-08-11T18:02:26;2.00;;;1.90;;
4808;SDS011;2418;49.930;8.606;2022-08-11T18:05:12;7.60;;;2.00;;
4808;SDS011;2418;49.930;8.606;2022-08-11T18:07:39;2.90;;;1.80;;
4808;SDS011;2418;49.930;8.606;2022-08-11T18:10:25;1.98;;;1.70;;
4808;SDS011;2418;49.930;8.606;2022-08-11T18:13:13;3.55;;;2.00;;
4808;SDS011;2418;49.930;8.606;2022-08-11T18:15:58;2.70;;;1.40;;
4808;SDS011;2418;49.930;8.606;2022-08-11T18:18:42;2.72;;;1.77;;
4808;SDS011;2418;49.930;8.606;2022-08-11T18:21:27;2.00;;;1.40;;
4808;SDS011;2418;49.930;8.606;2022-08-11T18:24:13;2.67;;;2.17;;
4808;SDS011;2418;49.930;8.606;2022-08-11T18:27:01;2.58;;;1.88;;
4808;SDS011;2418;49.930;8.606;2022-08-11T18:29:47;3.00;;;2.28;;
4808;SDS011;2418;49.930;8.606;2022-08-11T18:32:33;2.70;;;2.07;;
4808;SDS011;2418;49.930;8.606;2022-08-11T18:35:18;5.80;;;2.30;;
4808;SDS011;2418;49.930;8.606;2022-08-11T18:38:03;2.28;;;2.10;;
4808;SDS011;2418;49.930;8.606;2022-08-11T18:40:49;3.60;;;1.93;;
4808;SDS011;2418;49.930;8.606;2022-08-11T18:43:36;3.78;;;2.28;;
4808;SDS011;2418;49.930;8.606;2022-08-11T18:46:22;2.70;;;2.50;;
4808;SDS011;2418;49.930;8.606;2022-08-11T18:49:11;5.60;;;2.60;;
4808;SDS011;2418;49.930;8.606;2022-08-11T18:51:57;3.15;;;2.85;;
4808;SDS011;2418;49.930;8.606;2022-08-11T18:54:43;8.20;;;3.05;;